sensor_id;sensor_type;location;lat;lon;timestamp;pressure;altitude;pressure_sealevel;temperature;humidity
62510;BME280;48558;48.242;11.654;2023-02-01T00:03:24;96746.66;;;3.80;100.00
62510;BME280;48558;48.242;11.654;2023-02-01T00:07:39;96766.41;;;3.94;100.00
62510;BME280;48558;48.242;11.654;2023-02-01T00:11:52;96762.88;;;3.97;100.00
62510;BME280;48558;48.242;11.654;2023-02-01T00:16:16;96759.63;;;4.06;100.00
62510;BME280;48558;48.242;11.654;2023-02-01T00:20:29;96761.00;;;4.21;100.00
62510;BME280;48558;48.242;11.654;2023-02-01T00:24:42;96763.50;;;4.08;100.00
62510;BME280;48558;48.242;11.654;2023-02-01T00:28:54;96759.97;;;4.11;100.00
62510;BME280;48558;48.242;11.654;2023-02-01T00:33:07;96746.47;;;3.97;100.00
62510;BME280;48558;48.242;11.654;2023-02-01T00:37:19;96739.78;;;3.98;100.00
62510;BME280;48558;48.242;11.654;2023-02-01T00:41:32;96740.16;;;4.00;100.00
62510;BME280;48558;48.242;11.654;2023-02-01T00:45:47;96746.41;;;4.01;100.00
62510;BME280;48558;48.242;11.654;2023-02-01T00:50:00;96740.63;;;3.95;100.00
62510;BME280;48558;48.242;11.654;2023-02-01T00:54:13;96730.66;;;3.78;100.00
62510;BME280;48558;48.242;11.654;2023-02-01T00:58:26;96734.97;;;3.76;100.00
62510;BME280;48558;48.242;11.654;2023-02-01T01:02:38;96740.63;;;3.61;100.00
62510;BME280;48558;48.242;11.654;2023-02-01T01:07:00;96744.34;;;3.41;100.00
62510;BME280;48558;48.242;11.654;2023-02-01T01:11:18;96752.16;;;3.39;100.00
62510;BME280;48558;48.242;11.654;2023-02-01T01:15:42;96741.00;;;3.23;100.00
62510;BME280;48558;48.242;11.654;2023-02-01T01:19:55;96741.06;;;3.16;100.00
62510;BME280;48558;48.242;11.654;2023-02-01T01:24:10;96736.38;;;3.13;100.00
62510;BME280;48558;48.242;11.654;2023-02-01T01:28:22;96740.31;;;3.12;100.00
62510;BME280;48558;48.242;11.654;2023-02-01T01:32:35;96725.44;;;3.16;100.00
62510;BME280;48558;48.242;11.654;2023-02-01T01:36:47;96716.91;;;3.14;100.00
62510;BME280;48558;48.242;11.654;2023-02-01T01:41:00;96712.84;;;3.26;100.00
62510;BME280;48558;48.242;11.654;2023-02-01T01:49:39;96698.47;;;3.22;100.00
62510;BME280;48558;48.242;11.654;2023-02-01T01:54:25;96689.13;;;3.19;100.00
62510;BME280;48558;48.242;11.654;2023-02-01T01:58:41;96701.25;;;3.15;100.00
62510;BME280;48558;48.242;11.654;2023-02-01T02:03:02;96690.81;;;3.10;100.00
62510;BME280;48558;48.242;11.654;2023-02-01T02:07:22;96699.06;;;2.99;100.00
62510;BME280;48558;48.242;11.654;2023-02-01T02:11:37;96692.16;;;2.87;100.00
62510;BME280;48558;48.242;11.654;2023-02-01T02:35:30;96712.19;;;3.15;100.00
62510;BME280;48558;48.242;11.654;2023-02-01T02:40:06;96707.50;;;3.19;100.00
62510;BME280;48558;48.242;11.654;2023-02-01T02:44:39;96689.59;;;3.11;100.00
62510;BME280;48558;48.242;11.654;2023-02-01T02:49:27;96697.69;;;3.21;100.00
62510;BME280;48558;48.242;11.654;2023-02-01T02:54:25;96686.47;;;3.12;100.00
62510;BME280;48558;48.242;11.654;2023-02-01T02:59:02;96667.03;;;3.07;100.00
62510;BME280;48558;48.242;11.654;2023-02-01T03:03:38;96665.78;;;3.15;100.00
62510;BME280;48558;48.242;11.654;2023-02-01T03:08:16;96679.41;;;3.15;100.00
62510;BME280;48558;48.242;11.654;2023-02-01T03:12:34;96663.34;;;3.24;100.00
62510;BME280;48558;48.242;11.654;2023-02-01T03:17:11;96668.50;;;3.15;100.00
62510;BME280;48558;48.242;11.654;2023-02-01T03:21:31;96670.00;;;3.23;100.00
62510;BME280;48558;48.242;11.654;2023-02-01T03:25:48;96671.16;;;3.25;100.00
62510;BME280;48558;48.242;11.654;2023-02-01T03:30:10;96677.41;;;3.22;100.00
62510;BME280;48558;48.242;11.654;2023-02-01T03:34:33;96661.38;;;3.24;100.00
62510;BME280;48558;48.242;11.654;2023-02-01T03:43:17;96644.63;;;3.22;100.00
62510;BME280;48558;48.242;11.654;2023-02-01T03:47:35;96655.13;;;3.27;100.00
62510;BME280;48558;48.242;11.654;2023-02-01T03:51:50;96655.13;;;3.27;100.00
62510;BME280;48558;48.242;11.654;2023-02-01T03:56:05;96650.44;;;3.28;100.00
62510;BME280;48558;48.242;11.654;2023-02-01T04:00:24;96642.69;;;3.23;100.00
62510;BME280;48558;48.242;11.654;2023-02-01T04:04:37;96646.44;;;3.36;100.00
62510;BME280;48558;48.242;11.654;2023-02-01T04:08:50;96657.03;;;3.30;100.00
62510;BME280;48558;48.242;11.654;2023-02-01T04:13:03;96637.19;;;3.26;100.00
62510;BME280;48558;48.242;11.654;2023-02-01T04:17:16;96639.09;;;3.29;100.00
62510;BME280;48558;48.242;11.654;2023-02-01T04:21:38;96630.09;;;3.32;100.00
62510;BME280;48558;48.242;11.654;2023-02-01T04:25:51;96629.31;;;3.32;100.00
62510;BME280;48558;48.242;11.654;2023-02-01T04:30:04;96629.34;;;3.28;100.00
62510;BME280;48558;48.242;11.654;2023-02-01T04:34:22;96622.66;;;3.33;100.00
62510;BME280;48558;48.242;11.654;2023-02-01T04:38:46;96642.56;;;3.33;100.00
62510;BME280;48558;48.242;11.654;2023-02-01T04:43:00;96647.16;;;3.40;100.00
62510;BME280;48558;48.242;11.654;2023-02-01T04:47:14;96657.31;;;3.39;100.00
62510;BME280;48558;48.242;11.654;2023-02-01T04:51:27;96643.34;;;3.34;100.00
62510;BME280;48558;48.242;11.654;2023-02-01T04:55:40;96643.19;;;3.48;100.00
62510;BME280;48558;48.242;11.654;2023-02-01T04:59:53;96637.88;;;3.34;100.00
62510;BME280;48558;48.242;11.654;2023-02-01T05:04:05;96619.91;;;3.36;100.00
62510;BME280;48558;48.242;11.654;2023-02-01T05:08:18;96633.81;;;3.49;100.00
62510;BME280;48558;48.242;11.654;2023-02-01T05:12:43;96626.31;;;3.56;100.00
62510;BME280;48558;48.242;11.654;2023-02-01T05:17:14;96639.19;;;3.56;100.00
62510;BME280;48558;48.242;11.654;2023-02-01T05:21:37;96622.56;;;3.43;100.00
62510;BME280;48558;48.242;11.654;2023-02-01T05:25:49;96637.25;;;3.53;100.00
62510;BME280;48558;48.242;11.654;2023-02-01T05:30:05;96658.66;;;3.58;100.00
62510;BME280;48558;48.242;11.654;2023-02-01T05:34:18;96654.78;;;3.59;100.00
62510;BME280;48558;48.242;11.654;2023-02-01T05:38:41;96648.69;;;3.44;100.00
62510;BME280;48558;48.242;11.654;2023-02-01T05:42:53;96626.75;;;3.51;100.00
62510;BME280;48558;48.242;11.654;2023-02-01T05:47:06;96635.31;;;3.53;100.00
62510;BME280;48558;48.242;11.654;2023-02-01T05:51:19;96631.06;;;3.49;100.00
62510;BME280;48558;48.242;11.654;2023-02-01T05:55:32;96613.50;;;3.50;100.00
62510;BME280;48558;48.242;11.654;2023-02-01T05:59:44;96617.81;;;3.47;100.00
62510;BME280;48558;48.242;11.654;2023-02-01T06:03:57;96604.59;;;3.46;100.00
62510;BME280;48558;48.242;11.654;2023-02-01T06:08:11;96592.78;;;3.52;100.00
62510;BME280;48558;48.242;11.654;2023-02-01T06:12:24;96608.81;;;3.50;100.00
62510;BME280;48558;48.242;11.654;2023-02-01T06:16:44;96603.34;;;3.50;100.00
62510;BME280;48558;48.242;11.654;2023-02-01T06:20:59;96607.19;;;3.53;100.00
62510;BME280;48558;48.242;11.654;2023-02-01T06:25:12;96615.69;;;3.62;100.00
62510;BME280;48558;48.242;11.654;2023-02-01T06:29:25;96613.78;;;3.59;100.00
62510;BME280;48558;48.242;11.654;2023-02-01T06:33:41;96622.25;;;3.68;100.00
62510;BME280;48558;48.242;11.654;2023-02-01T06:37:53;96615.69;;;3.62;100.00
62510;BME280;48558;48.242;11.654;2023-02-01T06:42:06;96604.00;;;3.61;100.00
62510;BME280;48558;48.242;11.654;2023-02-01T06:46:19;96613.63;;;3.70;100.00
62510;BME280;48558;48.242;11.654;2023-02-01T06:50:31;96606.25;;;3.67;100.00
62510;BME280;48558;48.242;11.654;2023-02-01T06:54:54;96602.78;;;3.66;100.00
62510;BME280;48558;48.242;11.654;2023-02-01T06:59:08;96593.53;;;3.83;100.00
62510;BME280;48558;48.242;11.654;2023-02-01T07:03:20;96609.66;;;3.78;100.00
62510;BME280;48558;48.242;11.654;2023-02-01T07:07:33;96598.28;;;3.79;100.00
62510;BME280;48558;48.242;11.654;2023-02-01T07:11:45;96616.09;;;3.91;100.00
62510;BME280;48558;48.242;11.654;2023-02-01T07:16:00;96622.31;;;3.91;100.00
62510;BME280;48558;48.242;11.654;2023-02-01T07:20:16;96610.94;;;3.96;100.00
62510;BME280;48558;48.242;11.654;2023-02-01T07:24:29;96597.34;;;3.89;100.00
62510;BME280;48558;48.242;11.654;2023-02-01T07:28:43;96586.28;;;4.00;100.00
62510;BME280;48558;48.242;11.654;2023-02-01T07:32:56;96609.59;;;4.08;100.00
62510;BME280;48558;48.242;11.654;2023-02-01T07:37:12;96574.50;;;4.03;100.00
62510;BME280;48558;48.242;11.654;2023-02-01T07:41:25;96594.16;;;4.21;100.00
62510;BME280;48558;48.242;11.654;2023-02-01T07:45:51;96589.06;;;4.23;100.00
62510;BME280;48558;48.242;11.654;2023-02-01T07:50:04;96612.38;;;4.31;100.00
62510;BME280;48558;48.242;11.654;2023-02-01T07:54:17;96620.06;;;4.40;100.00
62510;BME280;48558;48.242;11.654;2023-02-01T07:58:30;96610.88;;;4.26;100.00
62510;BME280;48558;48.242;11.654;2023-02-01T08:02:42;96612.44;;;4.27;100.00
62510;BME280;48558;48.242;11.654;2023-02-01T08:06:55;96621.84;;;4.26;100.00
62510;BME280;48558;48.242;11.654;2023-02-01T08:11:07;96638.78;;;4.41;100.00
62510;BME280;48558;48.242;11.654;2023-02-01T08:15:20;96606.75;;;4.42;100.00
62510;BME280;48558;48.242;11.654;2023-02-01T08:19:32;96639.25;;;4.63;100.00
62510;BME280;48558;48.242;11.654;2023-02-01T08:23:45;96634.19;;;4.61;100.00
62510;BME280;48558;48.242;11.654;2023-02-01T08:27:57;96640.16;;;4.79;100.00
62510;BME280;48558;48.242;11.654;2023-02-01T08:32:10;96622.09;;;4.82;100.00
62510;BME280;48558;48.242;11.654;2023-02-01T08:36:23;96629.03;;;4.90;100.00
62510;BME280;48558;48.242;11.654;2023-02-01T08:40:46;96621.94;;;4.92;100.00
62510;BME280;48558;48.242;11.654;2023-02-01T08:44:59;96649.59;;;4.98;100.00
62510;BME280;48558;48.242;11.654;2023-02-01T08:49:11;96647.81;;;5.11;100.00
62510;BME280;48558;48.242;11.654;2023-02-01T08:53:24;96626.75;;;5.08;100.00
62510;BME280;48558;48.242;11.654;2023-02-01T08:57:37;96618.53;;;5.08;100.00
62510;BME280;48558;48.242;11.654;2023-02-01T09:01:49;96625.06;;;5.14;100.00
62510;BME280;48558;48.242;11.654;2023-02-01T09:06:04;96631.00;;;5.09;100.00
62510;BME280;48558;48.242;11.654;2023-02-01T09:10:19;96655.38;;;5.03;100.00
62510;BME280;48558;48.242;11.654;2023-02-01T09:14:45;96633.63;;;5.16;100.00
62510;BME280;48558;48.242;11.654;2023-02-01T09:18:57;96625.75;;;5.18;100.00
62510;BME280;48558;48.242;11.654;2023-02-01T09:23:30;96638.03;;;5.33;100.00
62510;BME280;48558;48.242;11.654;2023-02-01T09:27:43;96628.81;;;5.24;100.00
62510;BME280;48558;48.242;11.654;2023-02-01T09:31:56;96636.41;;;5.36;100.00
62510;BME280;48558;48.242;11.654;2023-02-01T09:36:14;96645.13;;;5.50;100.00
62510;BME280;48558;48.242;11.654;2023-02-01T09:40:27;96640.91;;;5.65;100.00
62510;BME280;48558;48.242;11.654;2023-02-01T09:44:52;96649.97;;;5.62;100.00
62510;BME280;48558;48.242;11.654;2023-02-01T09:49:32;96646.91;;;5.60;100.00
62510;BME280;48558;48.242;11.654;2023-02-01T09:58:20;96665.09;;;5.51;100.00
62510;BME280;48558;48.242;11.654;2023-02-01T10:02:39;96670.50;;;5.54;100.00
62510;BME280;48558;48.242;11.654;2023-02-01T10:11:45;96665.00;;;5.54;100.00
62510;BME280;48558;48.242;11.654;2023-02-01T10:16:16;96681.97;;;5.49;100.00
62510;BME280;48558;48.242;11.654;2023-02-01T10:20:48;96690.47;;;5.55;100.00
62510;BME280;48558;48.242;11.654;2023-02-01T10:25:33;96691.94;;;5.59;100.00
62510;BME280;48558;48.242;11.654;2023-02-01T10:30:03;96679.63;;;5.48;100.00
62510;BME280;48558;48.242;11.654;2023-02-01T10:34:24;96687.34;;;5.33;100.00
62510;BME280;48558;48.242;11.654;2023-02-01T10:38:39;96685.28;;;5.18;100.00
62510;BME280;48558;48.242;11.654;2023-02-01T10:43:00;96691.38;;;5.25;100.00
62510;BME280;48558;48.242;11.654;2023-02-01T10:47:14;96693.84;;;5.20;100.00
62510;BME280;48558;48.242;11.654;2023-02-01T10:52:15;96686.59;;;5.29;100.00
62510;BME280;48558;48.242;11.654;2023-02-01T10:56:26;96684.47;;;5.40;100.00
62510;BME280;48558;48.242;11.654;2023-02-01T11:05:09;96683.25;;;5.22;100.00
62510;BME280;48558;48.242;11.654;2023-02-01T11:09:24;96685.97;;;5.22;100.00
62510;BME280;48558;48.242;11.654;2023-02-01T11:13:39;96698.19;;;5.17;100.00
62510;BME280;48558;48.242;11.654;2023-02-01T11:17:52;96704.03;;;5.19;100.00
62510;BME280;48558;48.242;11.654;2023-02-01T11:22:10;96679.25;;;5.03;100.00
62510;BME280;48558;48.242;11.654;2023-02-01T11:26:39;96704.31;;;5.01;100.00
62510;BME280;48558;48.242;11.654;2023-02-01T11:30:55;96691.03;;;5.00;100.00
62510;BME280;48558;48.242;11.654;2023-02-01T11:35:17;96686.41;;;4.97;100.00
62510;BME280;48558;48.242;11.654;2023-02-01T11:39:35;96697.00;;;4.95;100.00
62510;BME280;48558;48.242;11.654;2023-02-01T11:43:59;96689.28;;;4.86;100.00
62510;BME280;48558;48.242;11.654;2023-02-01T11:48:15;96690.22;;;5.03;100.00
62510;BME280;48558;48.242;11.654;2023-02-01T11:57:42;96680.81;;;5.04;100.00
62510;BME280;48558;48.242;11.654;2023-02-01T12:02:47;96675.38;;;5.00;100.00
62510;BME280;48558;48.242;11.654;2023-02-01T12:07:27;96674.25;;;4.98;100.00
62510;BME280;48558;48.242;11.654;2023-02-01T12:12:22;96655.34;;;4.84;100.00
62510;BME280;48558;48.242;11.654;2023-02-01T12:17:05;96637.00;;;5.04;100.00
62510;BME280;48558;48.242;11.654;2023-02-01T12:30:54;96625.56;;;4.86;100.00
62510;BME280;48558;48.242;11.654;2023-02-01T12:44:43;96630.06;;;4.96;100.00
62510;BME280;48558;48.242;11.654;2023-02-01T12:49:21;96615.69;;;4.92;100.00
62510;BME280;48558;48.242;11.654;2023-02-01T12:53:52;96615.34;;;4.90;100.00
62510;BME280;48558;48.242;11.654;2023-02-01T12:58:17;96618.53;;;4.85;100.00
62510;BME280;48558;48.242;11.654;2023-02-01T13:02:44;96604.63;;;4.76;100.00
62510;BME280;48558;48.242;11.654;2023-02-01T13:07:11;96596.50;;;4.92;100.00
62510;BME280;48558;48.242;11.654;2023-02-01T13:11:35;96602.56;;;5.03;100.00
62510;BME280;48558;48.242;11.654;2023-02-01T13:15:58;96590.47;;;5.00;100.00
62510;BME280;48558;48.242;11.654;2023-02-01T13:20:35;96596.97;;;5.10;100.00
62510;BME280;48558;48.242;11.654;2023-02-01T13:24:56;96597.63;;;5.18;100.00
62510;BME280;48558;48.242;11.654;2023-02-01T13:29:11;96608.06;;;5.23;100.00
62510;BME280;48558;48.242;11.654;2023-02-01T13:42:28;96586.66;;;5.18;100.00
62510;BME280;48558;48.242;11.654;2023-02-01T13:46:45;96594.09;;;5.17;100.00
62510;BME280;48558;48.242;11.654;2023-02-01T13:50:59;96571.53;;;5.09;100.00
62510;BME280;48558;48.242;11.654;2023-02-01T13:55:27;96591.13;;;4.88;100.00
62510;BME280;48558;48.242;11.654;2023-02-01T13:59:51;96599.19;;;4.95;100.00
62510;BME280;48558;48.242;11.654;2023-02-01T14:04:06;96609.16;;;4.86;100.00
62510;BME280;48558;48.242;11.654;2023-02-01T14:13:45;96610.50;;;4.74;100.00
62510;BME280;48558;48.242;11.654;2023-02-01T14:17:57;96587.19;;;4.66;100.00
62510;BME280;48558;48.242;11.654;2023-02-01T14:22:32;96599.44;;;4.58;100.00
62510;BME280;48558;48.242;11.654;2023-02-01T14:26:50;96599.13;;;4.53;100.00
62510;BME280;48558;48.242;11.654;2023-02-01T14:31:43;96613.31;;;4.48;100.00
62510;BME280;48558;48.242;11.654;2023-02-01T14:36:17;96613.78;;;4.43;100.00
62510;BME280;48558;48.242;11.654;2023-02-01T14:40:30;96612.06;;;4.52;100.00
62510;BME280;48558;48.242;11.654;2023-02-01T14:44:43;96616.28;;;4.57;100.00
62510;BME280;48558;48.242;11.654;2023-02-01T14:49:10;96601.41;;;4.58;100.00
62510;BME280;48558;48.242;11.654;2023-02-01T14:53:33;96609.72;;;4.51;100.00
62510;BME280;48558;48.242;11.654;2023-02-01T14:57:49;96604.59;;;4.53;100.00
62510;BME280;48558;48.242;11.654;2023-02-01T15:02:18;96611.81;;;4.66;100.00
62510;BME280;48558;48.242;11.654;2023-02-01T15:06:49;96605.69;;;4.59;100.00
62510;BME280;48558;48.242;11.654;2023-02-01T15:11:11;96617.81;;;4.58;100.00
62510;BME280;48558;48.242;11.654;2023-02-01T15:15:26;96624.25;;;4.71;100.00
62510;BME280;48558;48.242;11.654;2023-02-01T15:19:38;96586.13;;;4.60;100.00
62510;BME280;48558;48.242;11.654;2023-02-01T15:24:10;96591.50;;;4.64;100.00
62510;BME280;48558;48.242;11.654;2023-02-01T15:28:36;96605.97;;;4.64;100.00
62510;BME280;48558;48.242;11.654;2023-02-01T15:32:50;96605.94;;;4.68;100.00
62510;BME280;48558;48.242;11.654;2023-02-01T15:37:14;96609.50;;;4.65;100.00
62510;BME280;48558;48.242;11.654;2023-02-01T15:41:29;96576.28;;;4.40;100.00
62510;BME280;48558;48.242;11.654;2023-02-01T15:45:44;96603.31;;;4.61;100.00
62510;BME280;48558;48.242;11.654;2023-02-01T15:49:59;96619.78;;;4.57;100.00
62510;BME280;48558;48.242;11.654;2023-02-01T15:54:46;96640.19;;;4.53;100.00
62510;BME280;48558;48.242;11.654;2023-02-01T15:59:03;96630.53;;;4.45;100.00
62510;BME280;48558;48.242;11.654;2023-02-01T16:03:36;96635.69;;;4.39;100.00
62510;BME280;48558;48.242;11.654;2023-02-01T16:07:59;96645.88;;;4.39;100.00
62510;BME280;48558;48.242;11.654;2023-02-01T16:12:34;96642.41;;;4.34;100.00
62510;BME280;48558;48.242;11.654;2023-02-01T16:16:59;96618.88;;;4.14;100.00
62510;BME280;48558;48.242;11.654;2023-02-01T16:21:11;96650.84;;;4.20;100.00
62510;BME280;48558;48.242;11.654;2023-02-01T16:25:24;96657.38;;;4.26;100.00
62510;BME280;48558;48.242;11.654;2023-02-01T16:29:39;96654.59;;;4.30;100.00
62510;BME280;48558;48.242;11.654;2023-02-01T16:33:53;96670.34;;;4.22;100.00
62510;BME280;48558;48.242;11.654;2023-02-01T16:38:11;96660.22;;;4.19;100.00
62510;BME280;48558;48.242;11.654;2023-02-01T16:42:24;96631.47;;;4.08;100.00
62510;BME280;48558;48.242;11.654;2023-02-01T16:46:44;96657.91;;;4.18;100.00
62510;BME280;48558;48.242;11.654;2023-02-01T16:51:02;96657.38;;;4.26;100.00
62510;BME280;48558;48.242;11.654;2023-02-01T16:55:20;96636.50;;;4.13;100.00
62510;BME280;48558;48.242;11.654;2023-02-01T16:59:34;96648.13;;;4.20;100.00
62510;BME280;48558;48.242;11.654;2023-02-01T17:03:57;96635.97;;;4.21;100.00
62510;BME280;48558;48.242;11.654;2023-02-01T17:08:12;96639.03;;;4.27;100.00
62510;BME280;48558;48.242;11.654;2023-02-01T17:12:29;96641.78;;;4.23;100.00
62510;BME280;48558;48.242;11.654;2023-02-01T17:16:45;96642.94;;;4.26;100.00
62510;BME280;48558;48.242;11.654;2023-02-01T17:21:00;96632.00;;;4.26;100.00
62510;BME280;48558;48.242;11.654;2023-02-01T17:25:20;96621.00;;;4.29;100.00
62510;BME280;48558;48.242;11.654;2023-02-01T17:29:34;96622.91;;;4.32;100.00
62510;BME280;48558;48.242;11.654;2023-02-01T17:33:46;96622.44;;;4.38;100.00
62510;BME280;48558;48.242;11.654;2023-02-01T17:37:59;96624.75;;;4.39;100.00
62510;BME280;48558;48.242;11.654;2023-02-01T17:42:11;96619.19;;;4.46;100.00
62510;BME280;48558;48.242;11.654;2023-02-01T17:46:24;96622.81;;;4.40;100.00
62510;BME280;48558;48.242;11.654;2023-02-01T17:50:38;96614.41;;;4.50;100.00
62510;BME280;48558;48.242;11.654;2023-02-01T17:54:51;96615.97;;;4.51;100.00
62510;BME280;48558;48.242;11.654;2023-02-01T17:59:05;96598.88;;;4.44;100.00
62510;BME280;48558;48.242;11.654;2023-02-01T18:03:30;96613.59;;;4.53;100.00
62510;BME280;48558;48.242;11.654;2023-02-01T18:07:47;96619.88;;;4.50;100.00
62510;BME280;48558;48.242;11.654;2023-02-01T18:12:01;96619.38;;;4.59;100.00
62510;BME280;48558;48.242;11.654;2023-02-01T18:16:25;96596.47;;;4.49;100.00
62510;BME280;48558;48.242;11.654;2023-02-01T18:20:43;96627.81;;;4.45;100.00
62510;BME280;48558;48.242;11.654;2023-02-01T18:24:56;96612.00;;;4.56;100.00
62510;BME280;48558;48.242;11.654;2023-02-01T18:29:09;96625.44;;;4.47;100.00
62510;BME280;48558;48.242;11.654;2023-02-01T18:33:31;96614.47;;;4.47;100.00
62510;BME280;48558;48.242;11.654;2023-02-01T18:37:55;96604.31;;;4.47;100.00
62510;BME280;48558;48.242;11.654;2023-02-01T18:42:18;96612.06;;;4.52;100.00
62510;BME280;48558;48.242;11.654;2023-02-01T18:46:41;96612.94;;;4.46;100.00
62510;BME280;48558;48.242;11.654;2023-02-01T18:50:54;96601.16;;;4.49;100.00
62510;BME280;48558;48.242;11.654;2023-02-01T18:55:09;96611.09;;;4.62;100.00
62510;BME280;48558;48.242;11.654;2023-02-01T18:59:22;96611.63;;;4.54;100.00
62510;BME280;48558;48.242;11.654;2023-02-01T19:03:35;96625.91;;;4.65;100.00
62510;BME280;48558;48.242;11.654;2023-02-01T19:07:58;96600.28;;;4.55;100.00
62510;BME280;48558;48.242;11.654;2023-02-01T19:12:10;96590.09;;;4.56;100.00
62510;BME280;48558;48.242;11.654;2023-02-01T19:16:33;96625.13;;;4.64;100.00
62510;BME280;48558;48.242;11.654;2023-02-01T19:20:49;96639.19;;;4.66;100.00
62510;BME280;48558;48.242;11.654;2023-02-01T19:25:02;96632.81;;;4.73;100.00
62510;BME280;48558;48.242;11.654;2023-02-01T19:29:15;96615.31;;;4.67;100.00
62510;BME280;48558;48.242;11.654;2023-02-01T19:33:28;96611.22;;;4.78;100.00
62510;BME280;48558;48.242;11.654;2023-02-01T19:37:41;96622.00;;;4.66;100.00
62510;BME280;48558;48.242;11.654;2023-02-01T19:41:53;96629.38;;;4.69;100.00
62510;BME280;48558;48.242;11.654;2023-02-01T19:46:06;96612.25;;;4.65;100.00
62510;BME280;48558;48.242;11.654;2023-02-01T19:50:28;96608.69;;;4.68;100.00
62510;BME280;48558;48.242;11.654;2023-02-01T19:54:41;96611.75;;;4.70;100.00
62510;BME280;48558;48.242;11.654;2023-02-01T19:58:53;96607.47;;;4.69;100.00
62510;BME280;48558;48.242;11.654;2023-02-01T20:03:06;96616.03;;;4.71;100.00
62510;BME280;48558;48.242;11.654;2023-02-01T20:07:19;96611.00;;;4.69;100.00
62510;BME280;48558;48.242;11.654;2023-02-01T20:11:32;96617.00;;;4.61;100.00
62510;BME280;48558;48.242;11.654;2023-02-01T20:15:57;96641.66;;;4.84;100.00
62510;BME280;48558;48.242;11.654;2023-02-01T20:20:11;96631.22;;;4.75;100.00
62510;BME280;48558;48.242;11.654;2023-02-01T20:24:30;96627.06;;;4.67;100.00
62510;BME280;48558;48.242;11.654;2023-02-01T20:28:43;96644.25;;;4.68;100.00
62510;BME280;48558;48.242;11.654;2023-02-01T20:33:05;96624.50;;;4.57;100.00
62510;BME280;48558;48.242;11.654;2023-02-01T20:37:19;96673.44;;;4.51;100.00
62510;BME280;48558;48.242;11.654;2023-02-01T20:41:32;96645.03;;;4.42;100.00
62510;BME280;48558;48.242;11.654;2023-02-01T20:45:48;96642.72;;;4.40;100.00
62510;BME280;48558;48.242;11.654;2023-02-01T20:50:01;96642.94;;;4.26;100.00
62510;BME280;48558;48.242;11.654;2023-02-01T20:54:24;96632.94;;;4.16;100.00
62510;BME280;48558;48.242;11.654;2023-02-01T20:58:37;96629.34;;;4.19;100.00
62510;BME280;48558;48.242;11.654;2023-02-01T21:02:50;96634.56;;;4.10;100.00
62510;BME280;48558;48.242;11.654;2023-02-01T21:07:03;96614.97;;;4.15;100.00
62510;BME280;48558;48.242;11.654;2023-02-01T21:11:15;96608.16;;;4.26;100.00
62510;BME280;48558;48.242;11.654;2023-02-01T21:15:28;96611.25;;;4.28;100.00
62510;BME280;48558;48.242;11.654;2023-02-01T21:19:45;96608.59;;;4.25;100.00
62510;BME280;48558;48.242;11.654;2023-02-01T21:23:58;96599.25;;;4.22;100.00
62510;BME280;48558;48.242;11.654;2023-02-01T21:28:11;96582.34;;;4.27;100.00
62510;BME280;48558;48.242;11.654;2023-02-01T21:32:24;96600.00;;;4.23;100.00
62510;BME280;48558;48.242;11.654;2023-02-01T21:36:36;96609.66;;;4.31;100.00
62510;BME280;48558;48.242;11.654;2023-02-01T21:40:49;96596.09;;;4.24;100.00
62510;BME280;48558;48.242;11.654;2023-02-01T21:45:21;96592.22;;;4.21;100.00
62510;BME280;48558;48.242;11.654;2023-02-01T21:49:34;96571.38;;;4.04;100.00
62510;BME280;48558;48.242;11.654;2023-02-01T21:53:47;96596.66;;;4.12;100.00
62510;BME280;48558;48.242;11.654;2023-02-01T21:57:59;96621.72;;;4.33;100.00
62510;BME280;48558;48.242;11.654;2023-02-01T22:02:15;96637.47;;;4.26;100.00
62510;BME280;48558;48.242;11.654;2023-02-01T22:06:30;96628.03;;;4.30;100.00
62510;BME280;48558;48.242;11.654;2023-02-01T22:10:47;96638.97;;;4.30;100.00
62510;BME280;48558;48.242;11.654;2023-02-01T22:14:59;96620.88;;;4.36;100.00
62510;BME280;48558;48.242;11.654;2023-02-01T22:19:12;96637.69;;;4.39;100.00
62510;BME280;48558;48.242;11.654;2023-02-01T22:23:26;96617.22;;;4.47;100.00
62510;BME280;48558;48.242;11.654;2023-02-01T22:27:39;96627.03;;;4.44;100.00
62510;BME280;48558;48.242;11.654;2023-02-01T22:32:21;96634.66;;;4.56;100.00
62510;BME280;48558;48.242;11.654;2023-02-01T22:36:34;96633.28;;;4.45;100.00
62510;BME280;48558;48.242;11.654;2023-02-01T22:40:54;96627.03;;;4.44;100.00
62510;BME280;48558;48.242;11.654;2023-02-01T22:45:10;96614.16;;;4.41;100.00
62510;BME280;48558;48.242;11.654;2023-02-01T22:49:22;96588.19;;;4.29;100.00
62510;BME280;48558;48.242;11.654;2023-02-01T22:53:35;96614.06;;;4.48;100.00
62510;BME280;48558;48.242;11.654;2023-02-01T22:57:47;96603.13;;;4.48;100.00
62510;BME280;48558;48.242;11.654;2023-02-01T23:02:00;96604.25;;;4.51;100.00
62510;BME280;48558;48.242;11.654;2023-02-01T23:06:12;96610.56;;;4.48;100.00
62510;BME280;48558;48.242;11.654;2023-02-01T23:10:39;96592.91;;;4.25;100.00
62510;BME280;48558;48.242;11.654;2023-02-01T23:14:52;96608.22;;;4.46;100.00
62510;BME280;48558;48.242;11.654;2023-02-01T23:19:17;96584.00;;;4.21;100.00
62510;BME280;48558;48.242;11.654;2023-02-01T23:23:31;96614.81;;;4.25;100.00
62510;BME280;48558;48.242;11.654;2023-02-01T23:27:44;96620.63;;;4.27;100.00
62510;BME280;48558;48.242;11.654;2023-02-01T23:32:00;96610.19;;;4.22;100.00
62510;BME280;48558;48.242;11.654;2023-02-01T23:36:24;96629.59;;;4.31;100.00
62510;BME280;48558;48.242;11.654;2023-02-01T23:40:38;96627.41;;;4.19;100.00
62510;BME280;48558;48.242;11.654;2023-02-01T23:44:50;96628.19;;;4.20;100.00
62510;BME280;48558;48.242;11.654;2023-02-01T23:49:04;96636.66;;;4.29;100.00
62510;BME280;48558;48.242;11.654;2023-02-01T23:53:19;96634.44;;;4.20;100.00